createdAt,value
2022-10-17T00:04:16.648Z,73.58
2022-10-17T00:09:22.179Z,73.79
2022-10-17T00:14:27.704Z,73.81
2022-10-17T00:19:33.065Z,74.04
2022-10-17T00:24:38.586Z,74.27
2022-10-17T00:29:44.060Z,74.25
2022-10-17T00:34:49.514Z,74.40
2022-10-17T00:39:56.129Z,74.63
2022-10-17T00:45:04.624Z,74.93
2022-10-17T00:50:12.242Z,74.81
2022-10-17T00:55:29.908Z,75.03
2022-10-17T01:00:37.072Z,75.31
2022-10-17T01:05:43.850Z,75.64
2022-10-17T01:11:13.573Z,75.58
2022-10-17T01:16:25.017Z,75.59
2022-10-17T01:21:48.287Z,75.79
2022-10-17T01:27:19.333Z,75.77
2022-10-17T01:32:28.733Z,75.80
2022-10-17T01:37:46.330Z,76.08
2022-10-17T01:43:01.671Z,75.86
2022-10-17T01:48:10.574Z,76.15
2022-10-17T01:53:21.911Z,76.23
2022-10-17T01:58:31.770Z,75.98
2022-10-17T02:03:38.439Z,75.84
2022-10-17T02:08:46.727Z,75.98
2022-10-17T02:14:07.336Z,75.82
2022-10-17T02:19:47.524Z,76.05
2022-10-17T02:24:57.720Z,75.91
2022-10-17T02:30:18.243Z,76.31
2022-10-17T02:35:26.240Z,76.41
2022-10-17T02:40:32.997Z,76.41
2022-10-17T02:45:39.956Z,76.51
2022-10-17T02:50:48.479Z,76.86
2022-10-17T02:55:57.066Z,77.15
2022-10-17T03:01:03.011Z,76.92
2022-10-17T03:06:09.583Z,77.20
2022-10-17T03:11:15.103Z,77.13
2022-10-17T03:16:20.751Z,77.15
2022-10-17T03:21:26.602Z,77.18
2022-10-17T03:26:33.289Z,77.27
2022-10-17T03:31:38.877Z,77.28
2022-10-17T03:36:44.947Z,77.43
2022-10-17T03:41:50.960Z,77.55
2022-10-17T03:46:56.642Z,78.01
2022-10-17T03:52:02.268Z,77.78
2022-10-17T03:57:08.207Z,78.02
2022-10-17T04:02:14.216Z,78.08
2022-10-17T04:07:20.138Z,78.12
2022-10-17T04:12:27.066Z,77.96
2022-10-17T04:17:37.291Z,77.98
2022-10-17T04:22:41.533Z,78.00
2022-10-17T04:27:49.141Z,78.12
2022-10-17T04:32:56.209Z,78.10
2022-10-17T04:38:01.838Z,78.09
2022-10-17T04:43:07.573Z,77.77
2022-10-17T04:48:13.996Z,77.86
2022-10-17T04:53:20.601Z,77.90
2022-10-17T04:58:28.454Z,77.92
2022-10-17T05:03:34.823Z,77.94
2022-10-17T05:08:40.900Z,78.18
2022-10-17T05:13:48.128Z,78.07
2022-10-17T05:18:55.723Z,78.17
2022-10-17T05:24:01.310Z,78.08
2022-10-17T05:29:07.391Z,77.70
2022-10-17T05:34:14.636Z,77.93
2022-10-17T05:39:20.699Z,77.91
2022-10-17T05:44:26.793Z,77.87
2022-10-17T05:49:45.174Z,77.69
2022-10-17T05:54:42.578Z,77.46
2022-10-17T05:59:49.510Z,77.14
2022-10-17T06:04:56.601Z,77.07
2022-10-17T06:10:02.674Z,76.89
2022-10-17T06:15:23.631Z,76.95
2022-10-17T06:20:30.690Z,76.83
2022-10-17T06:25:37.555Z,76.78
2022-10-17T06:30:43.506Z,76.27
2022-10-17T06:35:54.757Z,76.67
2022-10-17T06:41:10.803Z,76.93
2022-10-17T06:46:17.915Z,76.99
2022-10-17T06:51:25.056Z,76.88
2022-10-17T06:56:32.318Z,76.71
2022-10-17T07:01:41.816Z,76.69
2022-10-17T07:06:47.116Z,77.86
2022-10-17T07:11:57.302Z,79.49
2022-10-17T07:17:03.552Z,79.41
2022-10-17T07:22:11.152Z,79.27
2022-10-17T07:27:18.302Z,79.25
2022-10-17T07:32:25.393Z,79.60
2022-10-17T07:37:32.099Z,79.85
2022-10-17T07:47:44.962Z,79.38
2022-10-17T07:52:52.112Z,79.33
2022-10-17T07:58:00.668Z,79.13
2022-10-17T08:03:06.451Z,79.14
2022-10-17T08:08:11.912Z,78.70
2022-10-17T08:13:17.386Z,78.67
2022-10-17T08:18:23.015Z,78.32
2022-10-17T08:23:30.073Z,78.29
2022-10-17T08:28:37.978Z,77.89
2022-10-17T08:33:44.015Z,78.21
2022-10-17T08:38:52.767Z,77.93
2022-10-17T08:44:12.229Z,77.56
2022-10-17T08:49:40.423Z,77.49
2022-10-17T08:54:49.224Z,76.92
2022-10-17T08:59:56.873Z,76.85
2022-10-17T09:05:26.600Z,75.86
2022-10-17T09:10:46.517Z,75.33
2022-10-17T09:16:04.010Z,75.28
2022-10-17T09:21:30.372Z,74.93
2022-10-17T09:26:36.367Z,74.41
2022-10-17T09:31:47.583Z,74.13
2022-10-17T09:36:54.017Z,74.04
2022-10-17T09:42:01.708Z,73.65
2022-10-17T09:47:24.930Z,73.62
2022-10-17T09:52:50.790Z,73.29
2022-10-17T09:57:59.218Z,73.05
2022-10-17T10:03:22.209Z,72.67
2022-10-17T10:08:34.024Z,72.50
2022-10-17T10:13:39.643Z,72.30
2022-10-17T10:18:47.548Z,71.95
2022-10-17T10:24:02.574Z,71.48
2022-10-17T10:29:29.185Z,71.18
2022-10-17T10:34:36.207Z,70.93
2022-10-17T10:39:44.717Z,70.90
2022-10-17T10:44:52.120Z,70.07
2022-10-17T10:50:03.435Z,70.19
2022-10-17T10:55:23.911Z,70.08
2022-10-17T11:00:32.128Z,69.32
2022-10-17T11:06:03.168Z,69.02
2022-10-17T11:11:19.123Z,68.87
2022-10-17T11:16:42.881Z,68.58
2022-10-17T11:21:52.980Z,67.77
2022-10-17T11:27:06.873Z,67.18
2022-10-17T11:32:36.550Z,66.63
2022-10-17T11:37:48.322Z,65.65
2022-10-17T11:43:17.176Z,66.02
2022-10-17T11:48:31.458Z,64.70
2022-10-17T11:53:45.835Z,64.75
2022-10-17T11:59:00.086Z,64.81
2022-10-17T12:04:28.087Z,64.69
2022-10-17T12:09:51.281Z,64.59
2022-10-17T12:15:16.363Z,64.13
2022-10-17T12:20:27.738Z,63.28
2022-10-17T12:25:38.073Z,63.08
2022-10-17T12:31:06.049Z,62.64
2022-10-17T12:36:22.927Z,62.30
2022-10-17T12:41:44.965Z,61.48
2022-10-17T12:46:52.756Z,61.61
2022-10-17T12:52:18.891Z,61.17
2022-10-17T12:57:30.766Z,60.46
2022-10-17T13:02:37.516Z,60.11
2022-10-17T13:07:46.150Z,60.20
2022-10-17T13:12:54.268Z,60.09
2022-10-17T13:18:01.640Z,59.68
2022-10-17T13:23:07.083Z,59.25
2022-10-17T13:28:14.267Z,58.97
2022-10-17T13:33:34.605Z,58.79
2022-10-17T13:38:42.595Z,58.56
2022-10-17T13:43:47.624Z,58.35
2022-10-17T13:48:53.628Z,58.21
2022-10-17T13:53:59.060Z,57.82
2022-10-17T13:59:07.481Z,57.65
2022-10-17T14:04:19.774Z,57.64
2022-10-17T14:09:28.909Z,58.01
2022-10-17T14:14:58.112Z,58.34
2022-10-17T14:19:42.273Z,58.30
2022-10-17T14:24:48.196Z,58.01
2022-10-17T14:29:55.676Z,58.04
2022-10-17T14:35:24.390Z,57.89
2022-10-17T14:40:28.101Z,57.67
2022-10-17T14:45:36.688Z,57.72
2022-10-17T14:56:01.084Z,57.86
2022-10-17T15:01:06.984Z,57.92
2022-10-17T15:06:33.320Z,57.92
2022-10-17T15:11:39.716Z,57.95
2022-10-17T15:16:45.180Z,58.10
2022-10-17T15:21:50.578Z,58.45
2022-10-17T15:26:56.682Z,58.64
2022-10-17T15:32:02.159Z,58.77
2022-10-17T15:37:10.202Z,59.08
2022-10-17T15:42:15.567Z,59.32
2022-10-17T15:47:34.506Z,59.56
2022-10-17T15:52:41.519Z,59.82
2022-10-17T15:57:48.950Z,59.95
2022-10-17T16:02:54.413Z,60.34
2022-10-17T16:07:59.893Z,60.54
2022-10-17T16:13:05.279Z,61.11
2022-10-17T16:18:10.878Z,60.82
2022-10-17T16:23:16.436Z,60.91
2022-10-17T16:28:22.040Z,61.03
2022-10-17T16:33:27.682Z,61.19
2022-10-17T16:38:33.142Z,61.24
2022-10-17T16:43:38.600Z,61.41
2022-10-17T16:48:45.750Z,61.57
2022-10-17T16:53:54.529Z,61.43
2022-10-17T16:59:01.434Z,61.35
2022-10-17T17:04:08.606Z,61.35
2022-10-17T17:09:14.322Z,61.34
2022-10-17T17:14:19.777Z,61.35
2022-10-17T17:19:25.747Z,61.31
2022-10-17T17:24:31.441Z,61.25
2022-10-17T17:29:38.083Z,61.32
2022-10-17T17:34:43.607Z,61.29
2022-10-17T17:39:49.210Z,61.35
2022-10-17T17:44:54.762Z,61.32
2022-10-17T17:50:00.316Z,61.36
2022-10-17T17:55:06.355Z,61.26
2022-10-17T18:00:12.846Z,61.42
2022-10-17T18:05:18.549Z,61.50
2022-10-17T18:10:24.267Z,61.62
2022-10-17T18:15:29.872Z,61.65
2022-10-17T18:20:36.318Z,61.69
2022-10-17T18:25:41.925Z,61.74
2022-10-17T18:30:47.397Z,61.82
2022-10-17T18:35:55.957Z,61.79
2022-10-17T18:41:17.912Z,62.01
2022-10-17T18:46:25.841Z,62.27
2022-10-17T18:51:31.290Z,62.39
2022-10-17T18:56:36.863Z,62.69
2022-10-17T19:01:43.811Z,62.72
2022-10-17T19:06:49.432Z,62.84
2022-10-17T19:11:55.427Z,62.81
2022-10-17T19:17:01.937Z,62.89
2022-10-17T19:22:08.436Z,62.98
2022-10-17T19:27:13.967Z,63.07
2022-10-17T19:32:22.838Z,63.04
2022-10-17T19:37:27.191Z,63.11
2022-10-17T19:42:33.563Z,63.13
2022-10-17T19:47:40.004Z,63.13
2022-10-17T19:52:45.728Z,63.22
2022-10-17T19:57:51.179Z,63.23
2022-10-17T20:02:56.937Z,63.36
2022-10-17T20:08:03.166Z,63.57
2022-10-17T20:13:09.145Z,63.69
2022-10-17T20:18:14.689Z,63.81
2022-10-17T20:23:21.747Z,63.96
2022-10-17T20:28:28.052Z,64.02
2022-10-17T20:33:33.659Z,64.26
2022-10-17T20:38:39.577Z,64.43
2022-10-17T20:43:45.778Z,64.69
2022-10-17T20:48:55.313Z,64.82
2022-10-17T20:54:00.972Z,64.86
2022-10-17T20:59:09.729Z,62.69
2022-10-17T21:04:44.215Z,64.21
2022-10-17T21:09:23.089Z,64.96
2022-10-17T21:14:28.543Z,65.22
2022-10-17T21:19:34.336Z,65.47
2022-10-17T21:24:39.781Z,65.79
2022-10-17T21:29:45.781Z,65.85
2022-10-17T21:34:51.294Z,66.07
2022-10-17T21:39:56.831Z,66.43
2022-10-17T21:45:07.441Z,66.81
2022-10-17T21:50:10.512Z,67.17
2022-10-17T21:55:16.037Z,67.53
2022-10-17T22:00:21.558Z,67.82
2022-10-17T22:05:27.030Z,68.16
2022-10-17T22:10:32.494Z,68.35
2022-10-17T22:15:38.016Z,68.39
2022-10-17T22:20:43.648Z,68.61
2022-10-17T22:25:57.035Z,68.83
2022-10-17T22:31:02.961Z,68.98
2022-10-17T22:36:09.942Z,69.22
2022-10-17T22:41:15.829Z,69.09
2022-10-17T22:46:21.368Z,69.53
2022-10-17T22:51:26.894Z,69.70
2022-10-17T22:56:32.414Z,69.84
2022-10-17T23:01:37.955Z,70.24
2022-10-17T23:06:43.443Z,70.39
2022-10-17T23:11:48.974Z,70.92
2022-10-17T23:16:54.491Z,70.87
2022-10-17T23:22:00.021Z,70.93
2022-10-17T23:27:05.552Z,71.41
2022-10-17T23:32:11.016Z,71.82
2022-10-17T23:37:16.465Z,72.33
2022-10-17T23:42:21.974Z,72.64
2022-10-17T23:47:27.644Z,72.96
2022-10-17T23:52:33.792Z,73.28
2022-10-17T23:57:39.328Z,73.57
